Hood Island — C6LU4 — position and weather

sailwx.info

Track history (hours):
 
Tides and Currents Weather Stations Pressure Air Temp Water Temp Dewpoint Dewpoint Depression Visibility Wind Speed Wind Dir Waves Ship Positions

Hood Island

Last reported at 2017-Nov-19 05:53 UTC. Time now 2017-Nov-20 21:20 UTC.
Position N 60°02' E 029°00'.

Type: Cargo ship. MMSI: 308512000.

Date/timePositionNaut miles runAvg speedWind from/ knotsBaromVisibWave heightAir tempDewpointWater temp
2017-Nov-19 05:53N 60°02' E 029°00'617.0
2017-Nov-19 05:30N 60°02' E 028°48'918.7
2017-Nov-19 05:01N 60°03' E 028°29'714.4
2017-Nov-19 04:30N 60°07' E 028°17'816.6
2017-Nov-19 04:00N 60°09' E 028°01'816.9
2017-Nov-19 03:31N 60°10' E 027°44'1020.1
2017-Nov-19 03:01N 60°05' E 027°27'816.9
2017-Nov-19 02:30N 60°01' E 027°13'816.0
2017-Nov-19 02:00N 59°59' E 026°57'816.3
2017-Nov-19 01:30N 59°60' E 026°41'917.2
2017-Nov-19 01:00N 59°57' E 026°25'3016.9
2017-Nov-18 23:14N 59°51' E 025°27'417.4
2017-Nov-18 23:00N 59°50' E 025°19'917.6
2017-Nov-18 22:30N 59°48' E 025°01'917.4
2017-Nov-18 22:00N 59°46' E 024°45'917.4
2017-Nov-18 21:31N 59°44' E 024°28'917.5
2017-Nov-18 21:00N 59°41' E 024°11'917.5
2017-Nov-18 20:30N 59°39' E 023°55'1017.6
2017-Nov-18 19:58N 59°36' E 023°37'817.4
2017-Nov-18 19:29N 59°33' E 023°22'917.3
2017-Nov-18 18:59N 59°30' E 023°05'29117.4
2017-Nov-18 02:15N 56°02' E 016°43'418.1
2017-Nov-18 02:00N 55°60' E 016°36'918.0
2017-Nov-18 01:30N 55°56' E 016°22'917.9
2017-Nov-18 01:00N 55°51' E 016°08'917.8
2017-Nov-18 00:30N 55°47' E 015°54'917.7
2017-Nov-18 00:00N 55°43' E 015°41'917.7
2017-Nov-17 23:30N 55°39' E 015°27'917.8
2017-Nov-17 23:00N 55°34' E 015°13'917.7
2017-Nov-17 22:30N 55°30' E 014°59'917.7
2017-Nov-17 22:00N 55°27' E 014°45'917.8
2017-Nov-17 21:30N 55°20' E 014°34'917.9
2017-Nov-17 21:00N 55°13' E 014°24'917.7
2017-Nov-17 20:30N 55°06' E 014°15'1317.0
2017-Nov-17 19:45N 54°59' E 013°56'6317.5
2017-Nov-17 16:11N 54°34' E 012°17'317.5
2017-Nov-17 16:00N 54°31' E 012°15'2415.0
2017-Nov-17 14:22N 54°29' E 011°33'718.2
2017-Nov-17 14:00N 54°32' E 011°22'918.2
2017-Nov-17 13:30N 54°36' E 011°08'918.3
2017-Nov-17 13:00N 54°41' E 010°55'917.6
2017-Nov-17 12:30N 54°49' E 010°51'917.7
2017-Nov-17 12:00N 54°57' E 010°57'917.4
2017-Nov-17 11:30N 55°06' E 011°02'917.3
2017-Nov-17 11:00N 55°14' E 011°06'7212.1
2017-Nov-17 05:01N 56°15' E 012°13'615.7
2017-Nov-17 04:38N 56°12' E 012°22'215.9
2017-Nov-17 04:30N 56°10' E 012°25'815.4
2017-Nov-17 04:00N 56°05' E 012°36'510.2
2017-Nov-17 03:31N 56°01' E 012°41'1 1.6
2017-Nov-17 02:59N 56°02' E 012°42'0 0.0
2017-Nov-17 02:29N 56°02' E 012°42'0 0.0
2017-Nov-17 01:59N 56°02' E 012°41'0 0.0
2017-Nov-17 01:29N 56°02' E 012°42'0 0.0
2017-Nov-17 00:59N 56°02' E 012°41'0 0.0
2017-Nov-17 00:29N 56°02' E 012°42'0 0.0
2017-Nov-16 23:58N 56°02' E 012°41'0 0.0
2017-Nov-16 23:28N 56°02' E 012°42'0 0.0
2017-Nov-16 22:58N 56°02' E 012°42'0 0.0
2017-Nov-16 22:28N 56°02' E 012°42'0 0.0
2017-Nov-16 21:58N 56°02' E 012°42'0 0.0
2017-Nov-16 21:28N 56°02' E 012°41'0 0.0
2017-Nov-16 20:58N 56°02' E 012°42'0 0.0
2017-Nov-16 20:28N 56°02' E 012°41'0 0.0
2017-Nov-16 19:58N 56°02' E 012°41'0 0.0
2017-Nov-16 19:28N 56°02' E 012°42'0 0.0
2017-Nov-16 18:58N 56°02' E 012°41'0 0.0
2017-Nov-16 18:28N 56°02' E 012°42'0 0.0
2017-Nov-16 17:58N 56°02' E 012°41'0 0.0
2017-Nov-16 17:28N 56°02' E 012°42'0 0.0
2017-Nov-16 16:58N 56°02' E 012°42'0 0.0
2017-Nov-16 16:28N 56°02' E 012°42'0 0.0
2017-Nov-16 15:58N 56°02' E 012°42'0 0.0
2017-Nov-16 15:28N 56°02' E 012°41'0 0.0
2017-Nov-16 14:55N 56°02' E 012°41'0 0.0
2017-Nov-16 14:28N 56°02' E 012°41'0 0.0
2017-Nov-16 13:58N 56°02' E 012°42'0 0.0
2017-Nov-16 13:28N 56°02' E 012°41'0 0.0
2017-Nov-16 12:58N 56°02' E 012°41'0 0.3
2017-Nov-16 12:30N 56°02' E 012°42'1 2.6
2017-Nov-16 12:00N 56°02' E 012°39'5 9.6
2017-Nov-16 11:30N 56°06' E 012°34'4 7.7
2017-Nov-16 11:00N 56°08' E 012°28'816.5
2017-Nov-16 10:30N 56°13' E 012°16'3515.7
2017-Nov-16 08:17N 56°45' E 011°51'2916.7
2017-Nov-16 06:33N 57°12' E 011°33'117.1
2017-Nov-16 06:30N 57°13' E 011°32'917.2
2017-Nov-16 06:00N 57°21' E 011°27'916.6
2017-Nov-16 05:30N 57°29' E 011°21'917.5
2017-Nov-16 05:01N 57°35' E 011°09'917.5
2017-Nov-16 04:31N 57°41' E 010°58'917.4
2017-Nov-16 04:00N 57°47' E 010°46'816.7
2017-Nov-16 03:30N 57°51' E 010°32'816.6
2017-Nov-16 03:00N 57°50' E 010°16'34416.2
2017-Nov-15 05:50N 53°08' E 004°31'516.5
2017-Nov-15 05:30N 53°03' E 004°26'816.6
2017-Nov-15 05:00N 52°56' E 004°20'816.6
2017-Nov-15 04:30N 52°48' E 004°13'816.9
2017-Nov-15 04:00N 52°42' E 004°04'917.2
2017-Nov-15 03:28N 52°36' E 003°53'917.3
2017-Nov-15 02:56N 52°29' E 003°42'7118.1
2017-Nov-14 23:02N 51°37' E 002°25'118.7
2017-Nov-14 22:58N 51°36' E 002°24'918.5
2017-Nov-14 22:29N 51°29' E 002°15'817.9
2017-Nov-14 22:01N 51°21' E 002°11'918.4
2017-Nov-14 21:30N 51°14' E 002°03'918.6
2017-Nov-14 21:00N 51°09' E 001°50'919.0
2017-Nov-14 20:30N 51°02' E 001°39'917.9
2017-Nov-14 20:00N 50°55' E 001°30'7216.9
2017-Nov-14 15:44N 50°17' W 000°06'617.9
2017-Nov-14 15:24N 50°16' W 000°16'2617.4
2017-Nov-14 13:53N 50°09' W 000°56'616.4
2017-Nov-14 13:30N 50°08' W 001°05'816.0
2017-Nov-14 13:01N 50°04' W 001°16'815.2
2017-Nov-14 12:31N 50°01' W 001°27'714.8
2017-Nov-14 12:00N 50°00' W 001°38'714.5
2017-Nov-14 11:30N 49°59' W 001°49'714.0
2017-Nov-14 11:00N 49°58' W 002°00'2814.8
2017-Nov-14 09:09N 49°52' W 002°42'515.9
2017-Nov-14 08:50N 49°50' W 002°49'916.1
2017-Nov-14 08:15N 49°46' W 003°02'516.3
2017-Nov-14 07:57N 49°44' W 003°09'1316.4
2017-Nov-14 07:11N 49°39' W 003°27'316.4
2017-Nov-14 07:01N 49°39' W 003°32'1316.5
2017-Nov-14 06:13N 49°40' W 003°52'2817.2
2017-Nov-14 04:37N 49°34' W 004°33'417.7
2017-Nov-14 04:24N 49°32' W 004°39'717.7
2017-Nov-14 04:01N 49°31' W 004°49'917.9
2017-Nov-14 03:29N 49°28' W 005°03'818.0
2017-Nov-14 03:01N 49°25' W 005°15'917.8
2017-Nov-14 02:30N 49°20' W 005°27'917.9
2017-Nov-14 02:01N 49°15' W 005°38'918.1
2017-Nov-14 01:30N 49°11' W 005°50'918.2
2017-Nov-14 01:00N 49°05' W 006°01'918.3
2017-Nov-14 00:30N 49°00' W 006°13'2018.2
2017-Nov-13 23:23N 48°51' W 006°41'78716.6
2017-Nov-12 00:00N 42°30' W 023°06'23617.2 090 / 161038.010.8 16.016.0
2017-Nov-11 10:14N 40°41' W 027°46'516.2
2017-Nov-11 09:56N 40°38' W 027°52'916.4
2017-Nov-11 09:24N 40°34' W 028°02'1916.5
2017-Nov-11 08:16N 40°25' W 028°23'516.7
2017-Nov-11 07:57N 40°23' W 028°29'816.8
2017-Nov-11 07:30N 40°19' W 028°38'816.7
2017-Nov-11 07:01N 40°15' W 028°48'816.6
2017-Nov-11 06:30N 40°11' W 028°57'1016.9
2017-Nov-11 05:55N 40°06' W 029°08'716.8
2017-Nov-11 05:30N 40°03' W 029°16'816.7
2017-Nov-11 05:00N 39°59' W 029°26'816.9
2017-Nov-11 04:30N 39°55' W 029°36'816.6
2017-Nov-11 04:00N 39°51' W 029°45'816.4
2017-Nov-11 03:30N 39°47' W 029°54'816.6
2017-Nov-11 03:00N 39°43' W 030°04'816.6
2017-Nov-11 02:30N 39°39' W 030°13'816.6
2017-Nov-11 02:01N 39°35' W 030°23'1816.4
2017-Nov-11 00:54N 39°26' W 030°43'716.4
2017-Nov-11 00:30N 39°23' W 030°51'816.5
2017-Nov-11 00:00N 39°19' W 030°60'916.3
2017-Nov-10 23:28N 39°15' W 031°10'816.2
2017-Nov-10 23:00N 39°11' W 031°18'816.4
2017-Nov-10 22:30N 39°07' W 031°28'816.5
2017-Nov-10 22:00N 39°03' W 031°37'816.3
2017-Nov-10 21:30N 38°59' W 031°46'33394.8
2017-Nov-10 18:00N 33°30' W 032°48'32017.8 090 / 161033.010.8 21.021.0
2017-Nov-10 00:00N 36°12' W 038°24'9615.9 110 / 211032.010.8 21.021.0
2017-Nov-09 18:00N 35°24' W 040°06'19916.6 140 / 211027.010.8 23.023.0
2017-Nov-09 06:00N 33°54' W 043°42'   090 / 161025.0 0.5 22.022.0
Track history (hours):
 
Tides and Currents Weather Stations Pressure Air Temp Water Temp Dewpoint Dewpoint Depression Visibility Wind Speed Wind Dir Waves Ship Positions

Hood Island

Last reported at 2017-Nov-19 05:53 UTC. Time now 2017-Nov-20 21:21 UTC.
Position N 60°02' E 029°00'.

Type: Cargo ship. MMSI: 308512000.

Date/timePositionNaut miles runAvg speedWind from/ knotsBaromVisibWave heightAir tempDewpointWater temp
2017-Nov-19 05:53N 60°02' E 029°00'617.0
2017-Nov-19 05:30N 60°02' E 028°48'918.7
2017-Nov-19 05:01N 60°03' E 028°29'714.4
2017-Nov-19 04:30N 60°07' E 028°17'816.6
2017-Nov-19 04:00N 60°09' E 028°01'816.9
2017-Nov-19 03:31N 60°10' E 027°44'1020.1
2017-Nov-19 03:01N 60°05' E 027°27'816.9
2017-Nov-19 02:30N 60°01' E 027°13'816.0
2017-Nov-19 02:00N 59°59' E 026°57'816.3
2017-Nov-19 01:30N 59°60' E 026°41'917.2
2017-Nov-19 01:00N 59°57' E 026°25'3016.9
2017-Nov-18 23:14N 59°51' E 025°27'417.4
2017-Nov-18 23:00N 59°50' E 025°19'917.6
2017-Nov-18 22:30N 59°48' E 025°01'917.4
2017-Nov-18 22:00N 59°46' E 024°45'917.4
2017-Nov-18 21:31N 59°44' E 024°28'917.5
2017-Nov-18 21:00N 59°41' E 024°11'917.5
2017-Nov-18 20:30N 59°39' E 023°55'1017.6
2017-Nov-18 19:58N 59°36' E 023°37'817.4
2017-Nov-18 19:29N 59°33' E 023°22'917.3
2017-Nov-18 18:59N 59°30' E 023°05'29117.4
2017-Nov-18 02:15N 56°02' E 016°43'418.1
2017-Nov-18 02:00N 55°60' E 016°36'918.0
2017-Nov-18 01:30N 55°56' E 016°22'917.9
2017-Nov-18 01:00N 55°51' E 016°08'917.8
2017-Nov-18 00:30N 55°47' E 015°54'917.7
2017-Nov-18 00:00N 55°43' E 015°41'917.7
2017-Nov-17 23:30N 55°39' E 015°27'917.8
2017-Nov-17 23:00N 55°34' E 015°13'917.7
2017-Nov-17 22:30N 55°30' E 014°59'917.7
2017-Nov-17 22:00N 55°27' E 014°45'917.8
2017-Nov-17 21:30N 55°20' E 014°34'917.9
2017-Nov-17 21:00N 55°13' E 014°24'917.7
2017-Nov-17 20:30N 55°06' E 014°15'1317.0
2017-Nov-17 19:45N 54°59' E 013°56'6317.5
2017-Nov-17 16:11N 54°34' E 012°17'317.5
2017-Nov-17 16:00N 54°31' E 012°15'2415.0
2017-Nov-17 14:22N 54°29' E 011°33'718.2
2017-Nov-17 14:00N 54°32' E 011°22'918.2
2017-Nov-17 13:30N 54°36' E 011°08'918.3
2017-Nov-17 13:00N 54°41' E 010°55'917.6
2017-Nov-17 12:30N 54°49' E 010°51'917.7
2017-Nov-17 12:00N 54°57' E 010°57'917.4
2017-Nov-17 11:30N 55°06' E 011°02'917.3
2017-Nov-17 11:00N 55°14' E 011°06'7212.1
2017-Nov-17 05:01N 56°15' E 012°13'615.7
2017-Nov-17 04:38N 56°12' E 012°22'215.9
2017-Nov-17 04:30N 56°10' E 012°25'815.4
2017-Nov-17 04:00N 56°05' E 012°36'510.2
2017-Nov-17 03:31N 56°01' E 012°41'1 1.6
2017-Nov-17 02:59N 56°02' E 012°42'0 0.0
2017-Nov-17 02:29N 56°02' E 012°42'0 0.0
2017-Nov-17 01:59N 56°02' E 012°41'0 0.0
2017-Nov-17 01:29N 56°02' E 012°42'0 0.0
2017-Nov-17 00:59N 56°02' E 012°41'0 0.0
2017-Nov-17 00:29N 56°02' E 012°42'0 0.0
2017-Nov-16 23:58N 56°02' E 012°41'0 0.0
2017-Nov-16 23:28N 56°02' E 012°42'0 0.0
2017-Nov-16 22:58N 56°02' E 012°42'0 0.0
2017-Nov-16 22:28N 56°02' E 012°42'0 0.0
2017-Nov-16 21:58N 56°02' E 012°42'0 0.0
2017-Nov-16 21:28N 56°02' E 012°41'0 0.0
2017-Nov-16 20:58N 56°02' E 012°42'0 0.0
2017-Nov-16 20:28N 56°02' E 012°41'0 0.0
2017-Nov-16 19:58N 56°02' E 012°41'0 0.0
2017-Nov-16 19:28N 56°02' E 012°42'0 0.0
2017-Nov-16 18:58N 56°02' E 012°41'0 0.0
2017-Nov-16 18:28N 56°02' E 012°42'0 0.0
2017-Nov-16 17:58N 56°02' E 012°41'0 0.0
2017-Nov-16 17:28N 56°02' E 012°42'0 0.0
2017-Nov-16 16:58N 56°02' E 012°42'0 0.0
2017-Nov-16 16:28N 56°02' E 012°42'0 0.0
2017-Nov-16 15:58N 56°02' E 012°42'0 0.0
2017-Nov-16 15:28N 56°02' E 012°41'0 0.0
2017-Nov-16 14:55N 56°02' E 012°41'0 0.0
2017-Nov-16 14:28N 56°02' E 012°41'0 0.0
2017-Nov-16 13:58N 56°02' E 012°42'0 0.0
2017-Nov-16 13:28N 56°02' E 012°41'0 0.0
2017-Nov-16 12:58N 56°02' E 012°41'0 0.3
2017-Nov-16 12:30N 56°02' E 012°42'1 2.6
2017-Nov-16 12:00N 56°02' E 012°39'5 9.6
2017-Nov-16 11:30N 56°06' E 012°34'4 7.7
2017-Nov-16 11:00N 56°08' E 012°28'816.5
2017-Nov-16 10:30N 56°13' E 012°16'3515.7
2017-Nov-16 08:17N 56°45' E 011°51'2916.7
2017-Nov-16 06:33N 57°12' E 011°33'117.1
2017-Nov-16 06:30N 57°13' E 011°32'917.2
2017-Nov-16 06:00N 57°21' E 011°27'916.6
2017-Nov-16 05:30N 57°29' E 011°21'917.5
2017-Nov-16 05:01N 57°35' E 011°09'917.5
2017-Nov-16 04:31N 57°41' E 010°58'917.4
2017-Nov-16 04:00N 57°47' E 010°46'816.7
2017-Nov-16 03:30N 57°51' E 010°32'816.6
2017-Nov-16 03:00N 57°50' E 010°16'34416.2
2017-Nov-15 05:50N 53°08' E 004°31'516.5
2017-Nov-15 05:30N 53°03' E 004°26'816.6
2017-Nov-15 05:00N 52°56' E 004°20'816.6
2017-Nov-15 04:30N 52°48' E 004°13'816.9
2017-Nov-15 04:00N 52°42' E 004°04'917.2
2017-Nov-15 03:28N 52°36' E 003°53'917.3
2017-Nov-15 02:56N 52°29' E 003°42'7118.1
2017-Nov-14 23:02N 51°37' E 002°25'118.7
2017-Nov-14 22:58N 51°36' E 002°24'918.5
2017-Nov-14 22:29N 51°29' E 002°15'817.9
2017-Nov-14 22:01N 51°21' E 002°11'918.4
2017-Nov-14 21:30N 51°14' E 002°03'918.6
2017-Nov-14 21:00N 51°09' E 001°50'919.0
2017-Nov-14 20:30N 51°02' E 001°39'917.9
2017-Nov-14 20:00N 50°55' E 001°30'7216.9
2017-Nov-14 15:44N 50°17' W 000°06'617.9
2017-Nov-14 15:24N 50°16' W 000°16'2617.4
2017-Nov-14 13:53N 50°09' W 000°56'616.4
2017-Nov-14 13:30N 50°08' W 001°05'816.0
2017-Nov-14 13:01N 50°04' W 001°16'815.2
2017-Nov-14 12:31N 50°01' W 001°27'714.8
2017-Nov-14 12:00N 50°00' W 001°38'714.5
2017-Nov-14 11:30N 49°59' W 001°49'714.0
2017-Nov-14 11:00N 49°58' W 002°00'2814.8
2017-Nov-14 09:09N 49°52' W 002°42'515.9
2017-Nov-14 08:50N 49°50' W 002°49'916.1
2017-Nov-14 08:15N 49°46' W 003°02'516.3
2017-Nov-14 07:57N 49°44' W 003°09'1316.4
2017-Nov-14 07:11N 49°39' W 003°27'316.4
2017-Nov-14 07:01N 49°39' W 003°32'1316.5
2017-Nov-14 06:13N 49°40' W 003°52'2817.2
2017-Nov-14 04:37N 49°34' W 004°33'417.7
2017-Nov-14 04:24N 49°32' W 004°39'717.7
2017-Nov-14 04:01N 49°31' W 004°49'917.9
2017-Nov-14 03:29N 49°28' W 005°03'818.0
2017-Nov-14 03:01N 49°25' W 005°15'917.8
2017-Nov-14 02:30N 49°20' W 005°27'917.9
2017-Nov-14 02:01N 49°15' W 005°38'918.1
2017-Nov-14 01:30N 49°11' W 005°50'918.2
2017-Nov-14 01:00N 49°05' W 006°01'918.3
2017-Nov-14 00:30N 49°00' W 006°13'2018.2
2017-Nov-13 23:23N 48°51' W 006°41'78716.6
2017-Nov-12 00:00N 42°30' W 023°06'23617.2 090 / 161038.010.8 16.016.0
2017-Nov-11 10:14N 40°41' W 027°46'516.2
2017-Nov-11 09:56N 40°38' W 027°52'916.4
2017-Nov-11 09:24N 40°34' W 028°02'1916.5
2017-Nov-11 08:16N 40°25' W 028°23'516.7
2017-Nov-11 07:57N 40°23' W 028°29'816.8
2017-Nov-11 07:30N 40°19' W 028°38'816.7
2017-Nov-11 07:01N 40°15' W 028°48'816.6
2017-Nov-11 06:30N 40°11' W 028°57'1016.9
2017-Nov-11 05:55N 40°06' W 029°08'716.8
2017-Nov-11 05:30N 40°03' W 029°16'816.7
2017-Nov-11 05:00N 39°59' W 029°26'816.9
2017-Nov-11 04:30N 39°55' W 029°36'816.6
2017-Nov-11 04:00N 39°51' W 029°45'816.4
2017-Nov-11 03:30N 39°47' W 029°54'816.6
2017-Nov-11 03:00N 39°43' W 030°04'816.6
2017-Nov-11 02:30N 39°39' W 030°13'816.6
2017-Nov-11 02:01N 39°35' W 030°23'1816.4
2017-Nov-11 00:54N 39°26' W 030°43'716.4
2017-Nov-11 00:30N 39°23' W 030°51'816.5
2017-Nov-11 00:00N 39°19' W 030°60'916.3
2017-Nov-10 23:28N 39°15' W 031°10'816.2
2017-Nov-10 23:00N 39°11' W 031°18'816.4
2017-Nov-10 22:30N 39°07' W 031°28'816.5
2017-Nov-10 22:00N 39°03' W 031°37'816.3
2017-Nov-10 21:30N 38°59' W 031°46'33394.8
2017-Nov-10 18:00N 33°30' W 032°48'32017.8 090 / 161033.010.8 21.021.0
2017-Nov-10 00:00N 36°12' W 038°24'9615.9 110 / 211032.010.8 21.021.0
2017-Nov-09 18:00N 35°24' W 040°06'19916.6 140 / 211027.010.8 23.023.0
2017-Nov-09 06:00N 33°54' W 043°42'   090 / 161025.0 0.5 22.022.0

Dump ship's entire track history